Time;durP1;ratioP1;P1;durP2;ratioP2;P2;SDS_P1;SDS_P2;PMS_P1;PMS_P2;Temp;Humidity;BMP_temperature;BMP_pressure;BME280_temperature;BME280_humidity;BME280_pressure;Samples;Min_cycle;Max_cycle;Signal;HPM_P1;HPM_P2
2023/05/27 00:02:11;;;;;;;8.23;4.50;;;14.60;92.70;;;;;;5011863;28;20460;-75
2023/05/27 00:04:38;;;;;;;8.87;5.17;;;14.60;92.80;;;;;;5015414;28;20839;-74
2023/05/27 00:07:05;;;;;;;10.57;4.97;;;14.60;92.90;;;;;;5018062;28;20481;-73
2023/05/27 00:09:32;;;;;;;12.95;5.05;;;14.50;93.20;;;;;;5011061;28;20623;-75
2023/05/27 00:11:59;;;;;;;13.33;5.70;;;14.40;93.40;;;;;;5010062;28;20253;-75
2023/05/27 00:14:27;;;;;;;10.87;5.27;;;14.40;93.60;;;;;;5013016;28;20488;-75
2023/05/27 00:16:54;;;;;;;12.77;5.47;;;14.40;93.80;;;;;;5030021;28;20476;-75
2023/05/27 00:19:21;;;;;;;11.80;4.30;;;14.30;93.90;;;;;;5030952;28;20225;-75
2023/05/27 00:21:48;;;;;;;11.73;5.20;;;14.30;94.10;;;;;;5030680;28;20241;-74
2023/05/27 00:24:15;;;;;;;12.47;4.80;;;14.30;94.30;;;;;;5031997;28;20464;-74
2023/05/27 00:26:45;;;;;;;9.67;5.20;;;14.20;94.30;;;;;;5034077;28;20484;-75
2023/05/27 00:29:12;;;;;;;8.83;5.20;;;14.20;94.60;;;;;;5035652;28;20478;-74
2023/05/27 00:31:41;;;;;;;8.83;4.87;;;14.20;94.80;;;;;;5036297;28;20499;-74
2023/05/27 00:34:08;;;;;;;8.77;4.77;;;14.20;94.80;;;;;;5035711;28;20468;-74
2023/05/27 00:36:35;;;;;;;11.98;5.22;;;14.20;94.90;;;;;;5036278;28;20903;-74
2023/05/27 00:39:02;;;;;;;7.60;4.53;;;14.20;95.10;;;;;;5035916;28;20229;-75
2023/05/27 00:41:29;;;;;;;13.30;5.37;;;14.20;95.20;;;;;;5035888;28;20887;-76
2023/05/27 00:43:57;;;;;;;7.05;4.70;;;14.20;95.30;;;;;;5035825;28;20472;-74
2023/05/27 00:46:25;;;;;;;8.60;5.17;;;14.20;95.40;;;;;;5035715;28;20252;-74
2023/05/27 00:48:53;;;;;;;9.83;5.03;;;14.20;95.50;;;;;;5036182;28;20542;-74
2023/05/27 00:51:20;;;;;;;10.30;7.00;;;14.20;95.70;;;;;;5031720;28;20445;-74
2023/05/27 00:53:48;;;;;;;8.40;5.20;;;14.20;95.70;;;;;;5015749;28;20500;-74
2023/05/27 00:56:15;;;;;;;8.47;5.60;;;14.20;95.80;;;;;;5015088;28;20477;-74
2023/05/27 00:58:45;;;;;;;11.55;5.15;;;14.20;95.80;;;;;;5016424;28;20981;-74
2023/05/27 01:01:12;;;;;;;9.85;5.25;;;14.20;95.90;;;;;;5015064;28;20225;-74
2023/05/27 01:03:41;;;;;;;12.18;4.97;;;14.20;96.00;;;;;;5015979;28;20241;-74
2023/05/27 01:06:20;;;;;;;13.10;5.83;;;14.20;96.10;;;;;;5015238;28;20226;-75
2023/05/27 01:08:55;;;;;;;12.73;5.67;;;14.20;96.20;;;;;;5015531;28;20477;-74
2023/05/27 01:11:29;;;;;;;14.73;5.90;;;14.20;96.20;;;;;;4995061;28;20497;-74
2023/05/27 01:13:59;;;;;;;9.03;5.33;;;14.10;96.40;;;;;;5004134;28;20465;-74
2023/05/27 01:16:28;;;;;;;11.67;5.67;;;14.10;96.40;;;;;;4998847;28;20484;-74
2023/05/27 01:18:59;;;;;;;11.57;5.00;;;14.10;96.60;;;;;;5000172;28;20528;-74
2023/05/27 01:21:30;;;;;;;11.98;6.93;;;14.10;96.60;;;;;;5022865;28;20452;-74
2023/05/27 01:24:04;;;;;;;16.90;6.40;;;14.10;96.70;;;;;;5035248;28;20243;-74
2023/05/27 01:26:30;;;;;;;8.95;5.00;;;14.10;96.90;;;;;;5034765;28;20249;-74
2023/05/27 01:28:58;;;;;;;8.90;5.70;;;14.10;96.90;;;;;;5035415;28;20249;-74
2023/05/27 01:31:31;;;;;;;8.57;5.40;;;14.00;97.10;;;;;;5034466;28;20590;-74
2023/05/27 01:34:02;;;;;;;15.10;6.13;;;14.10;97.10;;;;;;5035124;28;20241;-74
2023/05/27 01:36:32;;;;;;;11.35;5.32;;;14.10;97.10;;;;;;5033145;28;20471;-74
2023/05/27 01:39:03;;;;;;;7.20;3.85;;;14.00;97.30;;;;;;5033379;28;20233;-73
2023/05/27 01:41:31;;;;;;;9.13;4.90;;;14.00;97.20;;;;;;5034301;28;20434;-74
2023/05/27 01:43:59;;;;;;;13.90;5.27;;;14.00;97.30;;;;;;5035088;28;20260;-75
2023/05/27 01:46:26;;;;;;;7.87;5.20;;;14.00;97.40;;;;;;5034456;28;20579;-75
2023/05/27 01:48:53;;;;;;;18.50;6.10;;;14.00;97.50;;;;;;5034904;28;20526;-76
2023/05/27 01:51:20;;;;;;;8.33;4.90;;;14.00;97.60;;;;;;5030800;28;20241;-76
2023/05/27 01:53:47;;;;;;;11.70;5.70;;;14.00;97.60;;;;;;5014825;28;20531;-75
2023/05/27 01:56:16;;;;;;;6.03;5.00;;;14.00;97.80;;;;;;5014071;28;20230;-75
2023/05/27 01:58:42;;;;;;;15.18;6.30;;;14.00;98.10;;;;;;5015087;28;20515;-75
2023/05/27 02:01:10;;;;;;;15.77;5.30;;;13.90;98.10;;;;;;5014405;28;20253;-76
2023/05/27 02:03:37;;;;;;;10.60;4.70;;;13.90;98.30;;;;;;5014752;28;20218;-76
2023/05/27 02:06:04;;;;;;;12.55;4.85;;;13.90;98.40;;;;;;5014746;28;20469;-76
2023/05/27 02:08:32;;;;;;;8.50;5.00;;;13.80;98.50;;;;;;5013976;28;20298;-75
2023/05/27 02:11:00;;;;;;;13.60;5.57;;;13.80;98.60;;;;;;5014526;28;20229;-76
2023/05/27 02:13:28;;;;;;;11.13;5.18;;;13.80;98.80;;;;;;5013611;28;20358;-75
2023/05/27 02:15:55;;;;;;;8.98;5.45;;;13.70;98.90;;;;;;5027503;28;20702;-75
2023/05/27 02:18:22;;;;;;;7.70;4.80;;;13.70;99.20;;;;;;5032799;28;20225;-76
2023/05/27 02:20:52;;;;;;;10.27;5.25;;;13.70;99.30;;;;;;5034414;28;20232;-75
2023/05/27 02:23:19;;;;;;;11.93;6.22;;;13.60;99.50;;;;;;5015411;28;20328;-74
2023/05/27 02:25:57;;;;;;;12.23;4.88;;;13.70;99.60;;;;;;5013461;28;20230;-75
2023/05/27 02:28:33;;;;;;;10.75;4.63;;;13.70;99.60;;;;;;5013702;28;20226;-75
2023/05/27 02:31:01;;;;;;;8.40;5.80;;;13.70;99.90;;;;;;5003923;28;20313;-75
2023/05/27 02:33:28;;;;;;;9.52;4.72;;;13.70;99.90;;;;;;5013437;28;20476;-76
2023/05/27 02:35:55;;;;;;;6.60;4.05;;;13.70;99.90;;;;;;5014212;28;20237;-76
2023/05/27 02:38:22;;;;;;;6.93;3.78;;;13.70;99.90;;;;;;5013226;28;20680;-76
2023/05/27 02:40:49;;;;;;;12.55;5.07;;;13.70;99.90;;;;;;5014141;28;20608;-76
2023/05/27 02:43:17;;;;;;;10.27;4.93;;;13.70;99.90;;;;;;5005726;28;20317;-75
2023/05/27 02:45:45;;;;;;;9.43;4.75;;;13.70;99.90;;;;;;5013713;28;20523;-75
2023/05/27 02:48:12;;;;;;;13.70;6.07;;;13.70;99.90;;;;;;5014266;28;20253;-74
2023/05/27 02:50:39;;;;;;;16.02;5.68;;;13.70;99.90;;;;;;5013106;28;20237;-75
2023/05/27 02:53:06;;;;;;;7.05;4.68;;;13.60;99.90;;;;;;5012568;28;20233;-76
2023/05/27 02:55:33;;;;;;;9.88;4.50;;;13.60;99.90;;;;;;5020638;28;20556;-75
2023/05/27 02:58:04;;;;;;;6.97;4.88;;;13.60;99.90;;;;;;5033452;28;20225;-74
2023/05/27 03:00:32;;;;;;;11.77;5.28;;;13.60;99.90;;;;;;5032973;28;20229;-75
2023/05/27 03:03:00;;;;;;;10.97;5.30;;;13.50;99.90;;;;;;5033320;28;20229;-75
2023/05/27 03:05:27;;;;;;;11.97;6.47;;;13.50;99.90;;;;;;5032765;28;20476;-75
2023/05/27 03:07:54;;;;;;;7.38;5.38;;;13.50;99.90;;;;;;5033351;28;20487;-75
2023/05/27 03:10:25;;;;;;;8.50;5.25;;;13.50;99.90;;;;;;5032811;28;20667;-75
2023/05/27 03:12:52;;;;;;;11.88;5.55;;;13.50;99.90;;;;;;5033596;28;20671;-74
2023/05/27 03:15:19;;;;;;;10.15;5.55;;;13.40;99.90;;;;;;5041385;28;20273;-75
2023/05/27 03:17:46;;;;;;;9.55;5.00;;;13.40;99.90;;;;;;5052125;28;20220;-75
2023/05/27 03:20:16;;;;;;;11.55;5.07;;;13.40;99.90;;;;;;5053282;28;20279;-74
2023/05/27 03:22:43;;;;;;;13.75;5.55;;;13.40;99.90;;;;;;5053010;28;20537;-76
2023/05/27 03:25:11;;;;;;;13.38;5.00;;;13.40;99.90;;;;;;5052931;28;20224;-74
2023/05/27 03:27:38;;;;;;;12.57;6.40;;;13.40;99.90;;;;;;5052231;28;20224;-75
2023/05/27 03:30:08;;;;;;;10.73;5.72;;;13.30;99.90;;;;;;5053113;28;20248;-76
2023/05/27 03:32:35;;;;;;;10.48;5.35;;;13.30;99.90;;;;;;5051634;28;20231;-75
2023/05/27 03:35:02;;;;;;;11.63;4.47;;;13.30;99.90;;;;;;5052754;28;20224;-76
2023/05/27 03:37:31;;;;;;;8.07;4.32;;;13.30;99.90;;;;;;5052496;28;20231;-76
2023/05/27 03:40:00;;;;;;;9.70;5.75;;;13.30;99.90;;;;;;5052636;28;20224;-76
2023/05/27 03:42:26;;;;;;;10.68;5.32;;;13.40;99.90;;;;;;5052174;28;20373;-75
2023/05/27 03:44:53;;;;;;;11.00;5.25;;;13.40;99.90;;;;;;5052417;28;20248;-75
2023/05/27 03:47:21;;;;;;;11.60;6.45;;;13.40;99.90;;;;;;5052493;28;20250;-75
2023/05/27 03:49:48;;;;;;;18.02;9.52;;;13.40;99.90;;;;;;5052348;28;20224;-75
2023/05/27 03:52:16;;;;;;;13.05;4.60;;;13.40;99.90;;;;;;5052334;28;20248;-75
2023/05/27 03:54:46;;;;;;;14.05;5.97;;;13.40;99.90;;;;;;5051768;28;20661;-76
2023/05/27 03:57:13;;;;;;;9.50;4.63;;;13.40;99.90;;;;;;5052534;28;20229;-76
2023/05/27 03:59:40;;;;;;;12.85;5.90;;;13.50;99.90;;;;;;5051843;28;20240;-76
2023/05/27 04:02:07;;;;;;;12.93;7.90;;;13.50;99.90;;;;;;5051597;28;20240;-74
2023/05/27 04:04:34;;;;;;;10.48;6.05;;;13.50;99.90;;;;;;5050150;28;20217;-74
2023/05/27 04:07:01;;;;;;;10.13;5.10;;;13.50;99.90;;;;;;5051036;28;20686;-74
2023/05/27 04:09:28;;;;;;;6.72;5.00;;;13.50;99.90;;;;;;5052119;28;20471;-74
2023/05/27 04:11:56;;;;;;;11.50;5.07;;;13.50;99.90;;;;;;5051583;28;20266;-74
2023/05/27 04:14:23;;;;;;;7.38;5.20;;;13.50;99.90;;;;;;5052350;28;20292;-74
2023/05/27 04:16:50;;;;;;;7.63;4.85;;;13.50;99.90;;;;;;5051710;28;20225;-76
2023/05/27 04:19:22;;;;;;;9.98;4.75;;;13.60;99.90;;;;;;5051918;28;20228;-75
2023/05/27 04:21:49;;;;;;;5.80;4.32;;;13.60;99.90;;;;;;5040129;28;20225;-74
2023/05/27 04:24:16;;;;;;;6.78;4.45;;;13.60;99.90;;;;;;5052046;28;20696;-74
2023/05/27 04:26:43;;;;;;;14.23;5.30;;;13.60;99.90;;;;;;5051617;28;20228;-76
2023/05/27 04:29:11;;;;;;;14.60;5.50;;;13.70;99.90;;;;;;5051490;28;20529;-76
2023/05/27 04:31:38;;;;;;;13.30;5.47;;;13.60;99.90;;;;;;5051855;28;20471;-74
2023/05/27 04:34:06;;;;;;;13.35;5.75;;;13.60;99.90;;;;;;5051864;28;20624;-75
2023/05/27 04:36:34;;;;;;;13.13;6.27;;;13.70;99.90;;;;;;5051788;28;20679;-74
2023/05/27 04:39:02;;;;;;;10.35;6.32;;;13.70;99.90;;;;;;5052181;28;20471;-74
2023/05/27 04:41:29;;;;;;;8.93;5.40;;;13.70;99.90;;;;;;5050849;28;20252;-76
2023/05/27 04:44:01;;;;;;;13.63;5.32;;;13.70;99.90;;;;;;5051967;28;20228;-76
2023/05/27 04:46:30;;;;;;;9.23;6.00;;;13.80;99.90;;;;;;5051443;28;20233;-75
2023/05/27 04:48:57;;;;;;;16.60;5.57;;;13.70;99.90;;;;;;5052207;28;20736;-75
2023/05/27 04:51:26;;;;;;;7.87;4.93;;;13.80;99.90;;;;;;5050590;28;20689;-74
2023/05/27 04:53:57;;;;;;;9.63;5.10;;;13.80;99.90;;;;;;5051042;28;20464;-75
2023/05/27 04:56:54;;;;;;;14.23;5.57;;;13.80;99.90;;;;;;5028613;28;20509;-76
2023/05/27 04:59:22;;;;;;;13.25;5.13;;;13.80;99.90;;;;;;5042167;28;20590;-75
2023/05/27 05:02:09;;;;;;;9.18;4.93;;;13.80;99.90;;;;;;5031710;28;20233;-75
2023/05/27 05:04:37;;;;;;;9.07;5.25;;;13.80;99.90;;;;;;5031387;28;20249;-73
2023/05/27 05:07:04;;;;;;;9.27;4.67;;;13.90;99.90;;;;;;5032282;28;20229;-75
2023/05/27 05:09:31;;;;;;;9.73;4.75;;;13.90;99.90;;;;;;5022863;28;20526;-73
2023/05/27 05:12:12;;;;;;;8.13;4.67;;;13.90;99.90;;;;;;5032422;28;20260;-74
2023/05/27 05:14:39;;;;;;;12.13;5.07;;;13.90;99.90;;;;;;5035059;28;20487;-77
2023/05/27 05:17:13;;;;;;;8.97;4.90;;;13.90;99.90;;;;;;5035309;28;20463;-75
2023/05/27 05:19:40;;;;;;;7.10;4.97;;;14.00;99.90;;;;;;5034707;28;20471;-76
2023/05/27 05:22:08;;;;;;;8.87;4.87;;;14.00;99.90;;;;;;5027170;28;20467;-76
2023/05/27 05:24:41;;;;;;;10.70;4.93;;;14.10;99.90;;;;;;5039758;28;20474;-75
2023/05/27 05:27:08;;;;;;;10.48;4.90;;;14.10;99.90;;;;;;5035295;28;20460;-76
2023/05/27 05:29:35;;;;;;;10.50;5.10;;;14.20;99.90;;;;;;5035108;28;20240;-76
2023/05/27 05:32:02;;;;;;;8.37;4.67;;;14.30;99.90;;;;;;5034704;28;20468;-75
2023/05/27 05:34:30;;;;;;;7.10;4.50;;;14.40;99.90;;;;;;5035439;28;20476;-76
2023/05/27 05:37:10;;;;;;;9.23;5.33;;;14.40;99.90;;;;;;5034396;28;20585;-76
2023/05/27 05:39:38;;;;;;;6.30;4.90;;;14.40;99.90;;;;;;5034548;28;20498;-76
2023/05/27 05:42:14;;;;;;;10.30;4.70;;;14.50;99.90;;;;;;5034409;28;20849;-75
2023/05/27 05:44:41;;;;;;;6.10;3.90;;;14.60;99.90;;;;;;5035070;28;20468;-75
2023/05/27 05:47:08;;;;;;;10.53;4.77;;;14.70;99.90;;;;;;5034795;28;20491;-76
2023/05/27 05:49:36;;;;;;;9.77;5.00;;;14.80;99.90;;;;;;5033921;28;20507;-77
2023/05/27 05:52:05;;;;;;;8.63;4.80;;;14.90;99.90;;;;;;5034699;28;20476;-75
2023/05/27 05:54:32;;;;;;;4.90;3.97;;;15.00;99.90;;;;;;5034608;28;20464;-76
2023/05/27 05:57:01;;;;;;;8.13;3.47;;;15.10;99.90;;;;;;5053130;28;20475;-76
2023/05/27 05:59:33;;;;;;;7.30;3.73;;;15.20;99.90;;;;;;5054486;28;20513;-76
2023/05/27 06:02:00;;;;;;;9.97;5.07;;;15.30;99.90;;;;;;5053626;28;20467;-76
2023/05/27 06:04:27;;;;;;;7.60;4.00;;;15.30;99.90;;;;;;5054280;28;20969;-76
2023/05/27 06:06:56;;;;;;;5.17;4.07;;;15.50;99.80;;;;;;5054178;28;20471;-75
2023/05/27 06:09:24;;;;;;;5.90;3.10;;;15.60;99.60;;;;;;5054045;28;20491;-75
2023/05/27 06:11:53;;;;;;;6.57;3.17;;;15.70;98.70;;;;;;5053278;28;20525;-77
2023/05/27 06:14:22;;;;;;;9.73;4.50;;;15.80;98.50;;;;;;5043463;28;20471;-74
2023/05/27 06:16:49;;;;;;;6.30;4.10;;;15.90;98.30;;;;;;5053786;28;20526;-76
2023/05/27 06:19:16;;;;;;;6.57;3.40;;;16.10;96.80;;;;;;5053235;28;20471;-73
2023/05/27 06:21:43;;;;;;;8.67;3.90;;;16.20;96.40;;;;;;5054224;28;20540;-73
2023/05/27 06:24:11;;;;;;;6.40;3.30;;;16.30;95.20;;;;;;5053463;28;20459;-75
2023/05/27 06:26:38;;;;;;;6.57;4.00;;;16.40;94.40;;;;;;5053882;28;20570;-73
2023/05/27 06:29:14;;;;;;;5.37;3.07;;;16.60;93.50;;;;;;5052426;28;20502;-75
2023/05/27 06:31:46;;;;;;;6.03;3.20;;;16.70;93.20;;;;;;5053848;28;20496;-74
2023/05/27 06:34:13;;;;;;;7.33;3.60;;;16.90;92.90;;;;;;5042987;28;20801;-76
2023/05/27 06:36:56;;;;;;;4.93;3.13;;;17.10;92.10;;;;;;5053316;28;20917;-75
2023/05/27 06:39:25;;;;;;;7.27;4.77;;;17.20;91.60;;;;;;5053553;28;20478;-75
2023/05/27 06:41:52;;;;;;;3.93;2.10;;;17.40;91.20;;;;;;5053888;28;20521;-74
2023/05/27 06:44:20;;;;;;;6.20;1.70;;;17.60;87.70;;;;;;5053689;28;20856;-73
2023/05/27 06:46:47;;;;;;;3.57;1.70;;;17.70;85.20;;;;;;5043755;28;20486;-74
2023/05/27 06:49:14;;;;;;;3.30;2.20;;;17.90;82.60;;;;;;5053802;28;20532;-74
2023/05/27 06:51:41;;;;;;;3.80;2.33;;;18.00;78.30;;;;;;5053868;28;20541;-74
2023/05/27 06:54:08;;;;;;;4.50;2.30;;;18.20;78.40;;;;;;5053397;28;20498;-74
2023/05/27 06:56:47;;;;;;;5.43;2.50;;;18.40;76.70;;;;;;5053130;28;21018;-74
2023/05/27 06:59:14;;;;;;;5.00;2.57;;;18.50;75.40;;;;;;5053030;28;20478;-74
2023/05/27 07:01:41;;;;;;;6.43;4.50;;;18.60;75.60;;;;;;5053431;28;20961;-75
2023/05/27 07:04:18;;;;;;;4.60;3.20;;;18.70;75.80;;;;;;5052085;28;20490;-75
2023/05/27 07:06:45;;;;;;;6.67;5.97;;;18.70;73.70;;;;;;5051123;28;20541;-75
2023/05/27 07:09:13;;;;;;;9.00;5.53;;;18.80;73.00;;;;;;5052733;28;20462;-75
2023/05/27 07:11:42;;;;;;;3.93;2.70;;;18.90;72.40;;;;;;5052977;28;20944;-75
2023/05/27 07:14:10;;;;;;;3.97;2.20;;;19.00;71.50;;;;;;5052867;28;21067;-74
2023/05/27 07:16:37;;;;;;;3.93;2.40;;;19.10;71.50;;;;;;5052969;28;20913;-74
2023/05/27 07:19:05;;;;;;;6.30;2.37;;;19.20;72.10;;;;;;5051836;28;20481;-75
2023/05/27 07:21:32;;;;;;;4.00;2.00;;;19.20;71.70;;;;;;5053108;28;20800;-75
2023/05/27 07:24:02;;;;;;;3.27;1.83;;;19.30;72.20;;;;;;5052352;28;20770;-74
2023/05/27 07:26:29;;;;;;;3.40;2.17;;;19.40;72.30;;;;;;5052428;28;20952;-74
2023/05/27 07:29:01;;;;;;;4.20;2.27;;;19.60;72.90;;;;;;5052110;28;20486;-74
2023/05/27 07:31:28;;;;;;;3.30;1.80;;;19.70;73.40;;;;;;5053094;28;20522;-75
2023/05/27 07:33:56;;;;;;;5.67;2.10;;;19.90;72.40;;;;;;5052730;28;20483;-74
2023/05/27 07:36:23;;;;;;;1.83;1.73;;;20.00;71.90;;;;;;5042534;28;20574;-74
2023/05/27 07:38:50;;;;;;;2.67;1.70;;;20.20;68.50;;;;;;5052221;28;20945;-74
2023/05/27 07:41:17;;;;;;;3.10;1.60;;;20.30;66.70;;;;;;5052384;28;21038;-75
2023/05/27 07:43:44;;;;;;;1.73;1.40;;;20.40;64.80;;;;;;5052664;28;20467;-74
2023/05/27 07:46:12;;;;;;;3.23;2.13;;;20.60;65.20;;;;;;5052039;28;20507;-73
2023/05/27 07:48:39;;;;;;;2.70;1.50;;;20.70;64.90;;;;;;5041519;28;20475;-73
2023/05/27 07:51:07;;;;;;;2.80;1.53;;;20.80;63.60;;;;;;5051887;28;20594;-73
2023/05/27 07:53:37;;;;;;;3.77;2.10;;;20.80;62.20;;;;;;5052232;28;20463;-73
2023/05/27 07:56:08;;;;;;;2.00;1.80;;;20.80;62.60;;;;;;5052236;28;21049;-75
2023/05/27 07:58:35;;;;;;;2.90;1.87;;;20.90;62.00;;;;;;5052368;28;20527;-75
2023/05/27 08:01:01;;;;;;;3.10;1.53;;;21.00;61.90;;;;;;5052435;28;20471;-76
2023/05/27 08:03:30;;;;;;;2.53;1.80;;;21.10;60.70;;;;;;5052356;28;20947;-74
2023/05/27 08:05:58;;;;;;;2.43;2.07;;;21.20;60.30;;;;;;5052352;28;20471;-74
2023/05/27 08:08:25;;;;;;;3.17;1.60;;;21.30;60.80;;;;;;5051643;28;20459;-74
2023/05/27 08:10:56;;;;;;;3.80;1.90;;;21.30;59.00;;;;;;5052522;28;20534;-75
2023/05/27 08:13:23;;;;;;;1.57;1.10;;;21.40;59.30;;;;;;5051651;28;20953;-76
2023/05/27 08:15:50;;;;;;;2.70;1.23;;;21.40;59.30;;;;;;5052339;28;20463;-75
2023/05/27 08:18:17;;;;;;;2.20;1.67;;;21.50;58.40;;;;;;5052022;28;20471;-75
2023/05/27 08:20:46;;;;;;;1.80;1.50;;;21.60;56.90;;;;;;5052285;28;20538;-74
2023/05/27 08:23:13;;;;;;;1.60;1.30;;;21.60;56.30;;;;;;5052331;28;20825;-74
2023/05/27 08:25:52;;;;;;;1.73;1.60;;;21.60;54.90;;;;;;5052126;28;20928;-76
2023/05/27 08:28:19;;;;;;;2.40;1.63;;;21.60;55.20;;;;;;5051684;28;20475;-76
2023/05/27 08:30:47;;;;;;;2.63;2.13;;;21.70;55.40;;;;;;5052192;28;20491;-75
2023/05/27 08:33:14;;;;;;;2.17;1.97;;;21.80;55.10;;;;;;5052505;28;20470;-74
2023/05/27 08:35:41;;;;;;;4.90;1.93;;;21.70;55.00;;;;;;5051841;28;20463;-75
2023/05/27 08:38:10;;;;;;;2.27;1.70;;;21.70;54.90;;;;;;5052450;28;20477;-74
2023/05/27 08:40:39;;;;;;;3.93;2.57;;;21.80;55.50;;;;;;5041066;28;20490;-75
2023/05/27 08:43:07;;;;;;;3.07;2.50;;;21.90;55.50;;;;;;5040895;28;20495;-74
2023/05/27 08:45:34;;;;;;;3.67;1.90;;;21.90;55.70;;;;;;5051468;28;20854;-74
2023/05/27 08:48:04;;;;;;;2.00;1.80;;;21.90;55.00;;;;;;5054374;28;20470;-74
2023/05/27 08:50:34;;;;;;;1.63;1.10;;;21.90;54.80;;;;;;5055395;28;20849;-75
2023/05/27 08:53:03;;;;;;;1.67;1.27;;;21.90;54.10;;;;;;5055770;28;20467;-75
2023/05/27 08:55:33;;;;;;;2.07;1.40;;;21.90;53.40;;;;;;5054727;28;20940;-76
2023/05/27 08:58:00;;;;;;;3.53;1.47;;;21.70;52.50;;;;;;5056109;28;20855;-74
2023/05/27 09:00:28;;;;;;;4.30;2.40;;;21.70;52.50;;;;;;5055396;28;20528;-76
2023/05/27 09:02:56;;;;;;;2.17;1.50;;;21.60;53.10;;;;;;5055819;28;20479;-76
2023/05/27 09:05:23;;;;;;;1.13;1.03;;;21.60;53.00;;;;;;5056332;28;20529;-75
2023/05/27 09:07:51;;;;;;;3.73;1.63;;;21.50;51.90;;;;;;5055195;28;20470;-76
2023/05/27 09:10:18;;;;;;;5.17;4.63;;;21.50;51.50;;;;;;5055763;28;20809;-76
2023/05/27 09:12:47;;;;;;;2.30;2.07;;;21.40;51.30;;;;;;5054814;28;20525;-75
2023/05/27 09:15:14;;;;;;;2.53;2.00;;;21.30;52.00;;;;;;5056056;28;21014;-73
2023/05/27 09:17:42;;;;;;;1.40;1.30;;;21.30;52.50;;;;;;5045266;28;20482;-75
2023/05/27 09:20:15;;;;;;;2.40;1.43;;;21.30;52.20;;;;;;5054796;28;20471;-74
2023/05/27 09:22:42;;;;;;;2.13;1.27;;;21.20;51.90;;;;;;5054982;28;20471;-73
2023/05/27 09:25:10;;;;;;;2.70;1.70;;;21.30;51.40;;;;;;5045603;28;20515;-74
2023/05/27 09:27:37;;;;;;;1.60;1.50;;;21.20;51.90;;;;;;5054800;28;20474;-73
2023/05/27 09:30:10;;;;;;;2.40;1.83;;;21.20;50.90;;;;;;5055685;28;20564;-74
2023/05/27 09:32:39;;;;;;;2.57;2.37;;;21.20;50.70;;;;;;5055110;28;20515;-76
2023/05/27 09:35:08;;;;;;;3.33;2.00;;;21.20;50.90;;;;;;5055803;28;20471;-74
2023/05/27 09:37:36;;;;;;;2.10;1.63;;;21.20;51.50;;;;;;5054818;28;20949;-74
2023/05/27 09:40:07;;;;;;;2.13;1.93;;;21.20;50.70;;;;;;5055312;28;20471;-74
2023/05/27 09:42:44;;;;;;;2.03;1.43;;;21.20;50.90;;;;;;5055498;28;20515;-73
2023/05/27 09:45:15;;;;;;;3.10;2.33;;;21.10;50.60;;;;;;5055808;28;20474;-73
2023/05/27 09:47:48;;;;;;;3.03;2.20;;;21.10;50.90;;;;;;5055068;28;20451;-73
2023/05/27 09:50:15;;;;;;;5.47;2.63;;;21.10;51.10;;;;;;5055447;28;20495;-73
2023/05/27 09:52:44;;;;;;;3.80;2.87;;;21.00;50.70;;;;;;5054464;28;20459;-75
2023/05/27 09:55:15;;;;;;;3.03;2.63;;;21.00;50.90;;;;;;5053886;28;20514;-75
2023/05/27 09:57:42;;;;;;;2.40;1.93;;;21.00;51.40;;;;;;5054598;28;20832;-74
2023/05/27 10:00:17;;;;;;;1.60;1.20;;;21.00;51.10;;;;;;5052905;28;20520;-75
2023/05/27 10:02:47;;;;;;;3.73;2.23;;;21.00;50.40;;;;;;5054706;28;20996;-78
2023/05/27 10:05:15;;;;;;;3.77;2.70;;;21.10;50.30;;;;;;5054869;28;20479;-74
2023/05/27 10:07:45;;;;;;;3.00;2.50;;;21.00;50.40;;;;;;5054069;28;20465;-75
2023/05/27 10:10:18;;;;;;;5.17;2.10;;;21.10;50.00;;;;;;5054934;28;20529;-76
2023/05/27 10:12:47;;;;;;;2.37;2.17;;;21.10;49.60;;;;;;5054745;28;20466;-75
2023/05/27 10:15:23;;;;;;;1.50;1.40;;;21.20;49.60;;;;;;5045934;28;20809;-75
2023/05/27 10:17:55;;;;;;;2.13;1.53;;;21.20;49.20;;;;;;5054757;28;20466;-75
2023/05/27 10:20:28;;;;;;;2.20;1.70;;;21.20;49.10;;;;;;5053919;28;20475;-75
2023/05/27 10:22:56;;;;;;;2.43;2.23;;;21.20;48.80;;;;;;5054559;28;20547;-76
2023/05/27 10:25:39;;;;;;;1.70;1.60;;;21.20;48.80;;;;;;5054335;28;20503;-74
2023/05/27 10:28:06;;;;;;;2.30;1.93;;;21.30;48.90;;;;;;5054441;28;20619;-76
2023/05/27 10:30:45;;;;;;;2.53;2.00;;;21.30;49.00;;;;;;5053427;28;20521;-76
2023/05/27 10:33:13;;;;;;;6.00;4.90;;;21.30;48.70;;;;;;5054760;28;20471;-74
2023/05/27 10:35:42;;;;;;;3.37;2.40;;;21.40;49.00;;;;;;5054063;28;20478;-77
2023/05/27 10:38:18;;;;;;;3.80;2.97;;;21.50;48.70;;;;;;5054281;28;20490;-75
2023/05/27 10:40:49;;;;;;;3.90;3.50;;;21.50;48.70;;;;;;5054151;28;20467;-74
2023/05/27 10:43:17;;;;;;;3.20;2.27;;;21.50;48.80;;;;;;5042207;28;20467;-74
2023/05/27 10:45:44;;;;;;;6.10;4.30;;;21.50;48.20;;;;;;5053580;28;20486;-74
2023/05/27 10:48:19;;;;;;;4.00;3.53;;;21.50;48.00;;;;;;5054170;28;20463;-74
2023/05/27 10:50:52;;;;;;;3.77;3.37;;;21.50;48.30;;;;;;5053452;28;20455;-76
2023/05/27 10:53:22;;;;;;;2.53;2.30;;;21.60;49.30;;;;;;5052923;28;20957;-76
2023/05/27 10:55:51;;;;;;;2.60;2.40;;;21.60;48.70;;;;;;5052403;28;20493;-76
2023/05/27 10:58:19;;;;;;;3.40;2.17;;;21.60;48.70;;;;;;5043081;28;20550;-75
2023/05/27 11:00:48;;;;;;;2.10;1.90;;;21.60;48.20;;;;;;5053074;28;20478;-75
2023/05/27 11:03:22;;;;;;;3.10;2.57;;;21.60;48.50;;;;;;5053405;28;20475;-76
2023/05/27 11:05:58;;;;;;;1.97;1.33;;;21.60;48.70;;;;;;5053182;28;20593;-76
2023/05/27 11:08:26;;;;;;;2.63;2.03;;;21.50;48.90;;;;;;5053899;28;20503;-76
2023/05/27 11:10:59;;;;;;;4.10;2.63;;;21.50;49.90;;;;;;5052646;28;20471;-76
2023/05/27 11:13:31;;;;;;;5.30;2.33;;;21.60;49.80;;;;;;5053017;28;20498;-76
2023/05/27 11:15:58;;;;;;;2.33;2.13;;;21.70;49.70;;;;;;5050539;28;20458;-76
2023/05/27 11:18:37;;;;;;;7.47;2.20;;;21.60;49.40;;;;;;5053170;28;20952;-76
2023/05/27 11:21:05;;;;;;;3.50;2.90;;;21.60;49.20;;;;;;5044032;28;20470;-74
2023/05/27 11:23:36;;;;;;;2.90;2.20;;;21.70;49.70;;;;;;5052775;28;20482;-75
2023/05/27 11:26:04;;;;;;;2.30;1.80;;;21.70;49.90;;;;;;5051434;28;20510;-75
2023/05/27 11:28:31;;;;;;;3.00;1.57;;;21.60;49.40;;;;;;5052784;28;20467;-74
2023/05/27 11:31:04;;;;;;;3.60;3.17;;;21.60;50.10;;;;;;5051642;28;20505;-75
2023/05/27 11:33:34;;;;;;;5.23;3.37;;;21.70;50.10;;;;;;5053656;28;20528;-76
2023/05/27 11:36:08;;;;;;;3.20;2.77;;;21.70;50.10;;;;;;5049861;28;20937;-74
2023/05/27 11:38:48;;;;;;;2.97;2.30;;;21.80;50.10;;;;;;5051952;28;20475;-76
2023/05/27 11:41:15;;;;;;;3.47;1.97;;;21.90;49.80;;;;;;5052590;28;20743;-74
2023/05/27 11:43:48;;;;;;;4.10;2.50;;;21.80;49.40;;;;;;5050944;28;21034;-75
2023/05/27 11:46:16;;;;;;;3.10;2.70;;;21.90;49.90;;;;;;5050734;28;20471;-75
2023/05/27 11:48:44;;;;;;;4.07;2.63;;;21.90;50.20;;;;;;5052288;28;20471;-75
2023/05/27 11:51:14;;;;;;;2.90;2.13;;;21.90;50.40;;;;;;5051987;28;20466;-74
2023/05/27 11:53:42;;;;;;;3.20;2.57;;;21.90;50.20;;;;;;5052515;28;20533;-74
2023/05/27 11:56:09;;;;;;;5.93;3.00;;;22.00;50.10;;;;;;5051028;28;20558;-74
2023/05/27 11:58:43;;;;;;;5.30;3.10;;;22.10;50.70;;;;;;5052110;28;20467;-75
2023/05/27 12:01:10;;;;;;;2.63;2.00;;;22.00;50.30;;;;;;5050935;28;20528;-75
2023/05/27 12:03:37;;;;;;;2.80;2.50;;;22.10;50.20;;;;;;5051911;28;20821;-76
2023/05/27 12:06:08;;;;;;;3.90;2.50;;;22.10;50.00;;;;;;5051493;28;20532;-76
2023/05/27 12:08:35;;;;;;;5.60;2.17;;;22.10;50.20;;;;;;5052128;28;20808;-76
2023/05/27 12:11:02;;;;;;;2.60;1.97;;;22.20;50.40;;;;;;5050884;28;20479;-76
2023/05/27 12:13:31;;;;;;;2.43;2.10;;;22.20;50.30;;;;;;5052201;28;20471;-76
2023/05/27 12:16:03;;;;;;;3.40;2.30;;;22.20;50.40;;;;;;5051089;28;20570;-76
2023/05/27 12:18:30;;;;;;;2.10;1.90;;;22.20;49.50;;;;;;5052086;28;20999;-75
2023/05/27 12:20:57;;;;;;;2.47;2.17;;;22.10;49.70;;;;;;5051286;28;20533;-76
2023/05/27 12:23:25;;;;;;;2.43;2.23;;;22.00;49.60;;;;;;5054665;28;20497;-76
2023/05/27 12:25:56;;;;;;;1.87;1.67;;;21.90;49.50;;;;;;5055424;28;20475;-76
2023/05/27 12:28:23;;;;;;;3.30;2.00;;;21.90;49.30;;;;;;5055432;28;20459;-76
2023/05/27 12:30:50;;;;;;;2.40;1.77;;;21.90;50.10;;;;;;5055771;28;20499;-76
2023/05/27 12:33:17;;;;;;;2.27;1.97;;;21.90;49.60;;;;;;5055284;28;20529;-76
2023/05/27 12:35:44;;;;;;;2.90;2.57;;;21.90;49.00;;;;;;5056046;28;20822;-74
2023/05/27 12:38:11;;;;;;;2.30;2.10;;;21.90;49.10;;;;;;5055415;28;20522;-74
2023/05/27 12:40:40;;;;;;;3.03;2.20;;;22.00;49.20;;;;;;5055666;28;20470;-74
2023/05/27 12:43:11;;;;;;;2.50;1.97;;;22.00;48.70;;;;;;5054951;28;20495;-74
2023/05/27 12:45:38;;;;;;;2.90;1.83;;;21.90;49.00;;;;;;5055355;28;20496;-74
2023/05/27 12:48:06;;;;;;;2.80;1.70;;;21.90;48.80;;;;;;5054887;28;20468;-74
2023/05/27 12:50:33;;;;;;;1.77;1.67;;;21.90;48.00;;;;;;5055724;28;20490;-74
2023/05/27 12:53:00;;;;;;;2.93;2.60;;;22.00;48.50;;;;;;5055333;28;20482;-75
2023/05/27 12:55:27;;;;;;;3.50;2.03;;;22.00;48.60;;;;;;5055177;28;20498;-74